Time;durP1;ratioP1;P1;durP2;ratioP2;P2;SDS_P1;SDS_P2;PMS_P1;PMS_P2;Temp;Humidity;BMP_temperature;BMP_pressure;BME280_temperature;BME280_humidity;BME280_pressure;Samples;Min_cycle;Max_cycle;Signal;HPM_P1;HPM_P2
2022/12/22 03:26:20;;;;;;;12.30;9.10;;;14.40;98.30;;;;;;5055497;28;20049;-69
2022/12/22 03:28:45;;;;;;;11.70;9.07;;;14.60;99.50;;;;;;5055450;28;20133;-71
2022/12/22 03:31:11;;;;;;;11.57;8.35;;;14.70;99.70;;;;;;5055639;28;20076;-70
2022/12/22 03:33:37;;;;;;;11.35;8.50;;;14.30;99.40;;;;;;5055602;28;20041;-69
2022/12/22 03:36:03;;;;;;;12.00;8.07;;;14.60;99.50;;;;;;5049737;28;20034;-70
2022/12/22 03:38:29;;;;;;;11.93;9.00;;;14.50;99.60;;;;;;5043044;28;20502;-69
2022/12/22 03:40:55;;;;;;;12.25;9.07;;;14.60;99.50;;;;;;5073291;28;20036;-69
2022/12/22 03:51:34;;;;;;;15.18;9.63;;;14.40;98.30;;;;;;5075248;28;20044;-70
2022/12/22 03:54:00;;;;;;;12.02;8.55;;;;;;;;;;5057615;28;20033;-71
2022/12/22 03:56:26;;;;;;;14.32;9.07;;;14.40;99.50;;;;;;5068404;28;20409;-70
2022/12/22 03:58:52;;;;;;;12.18;8.70;;;;;;;;;;5049602;28;20041;-69
2022/12/22 04:01:18;;;;;;;12.32;8.75;;;14.70;99.50;;;;;;5052586;28;20103;-69
2022/12/22 04:03:44;;;;;;;11.27;8.25;;;14.60;98.30;;;;;;5050392;28;20415;-70
2022/12/22 04:06:10;;;;;;;11.85;8.68;;;;;;;;;;5050320;28;20052;-70
2022/12/22 04:08:36;;;;;;;11.63;8.70;;;14.60;99.50;;;;;;5035080;28;20053;-71
2022/12/22 04:13:46;;;;;;;12.18;8.23;;;14.60;99.50;;;;;;5034840;28;20057;-68
2022/12/22 04:16:11;;;;;;;12.05;8.23;;;14.50;98.30;;;;;;5041536;28;20098;-71
2022/12/22 04:18:37;;;;;;;11.60;8.38;;;14.40;99.40;;;;;;5054388;28;20052;-69
2022/12/22 04:21:03;;;;;;;13.05;8.02;;;14.30;99.40;;;;;;5054375;28;20067;-70
2022/12/22 04:23:29;;;;;;;11.80;8.38;;;14.60;98.30;;;;;;5040953;28;20053;-70
2022/12/22 04:25:54;;;;;;;11.50;8.20;;;14.60;99.50;;;;;;5034701;28;20136;-70
2022/12/22 04:28:20;;;;;;;11.68;8.20;;;14.80;98.40;;;;;;5050618;28;20047;-70
2022/12/22 04:30:49;;;;;;;11.07;8.20;;;14.60;99.50;;;;;;5054163;28;20068;-71
2022/12/22 04:33:15;;;;;;;10.60;7.68;;;14.70;99.50;;;;;;5054468;28;20162;-70
2022/12/22 04:35:40;;;;;;;11.30;8.13;;;14.40;99.40;;;;;;5054244;28;20072;-70
2022/12/22 04:38:06;;;;;;;10.80;8.25;;;14.50;99.40;;;;;;5042389;28;20049;-70
2022/12/22 04:40:32;;;;;;;11.93;8.50;;;14.90;98.30;;;;;;5060846;28;20129;-70
2022/12/22 04:42:57;;;;;;;10.57;7.53;;;14.60;99.40;;;;;;5073142;28;20028;-71
2022/12/22 04:45:23;;;;;;;12.25;8.32;;;14.70;98.30;;;;;;5040546;28;20049;-70
2022/12/22 04:47:49;;;;;;;11.10;8.38;;;14.60;99.30;;;;;;5036679;28;20074;-70
2022/12/22 04:50:15;;;;;;;11.23;7.93;;;;;;;;;;5071196;28;20120;-70
2022/12/22 04:52:41;;;;;;;10.90;8.23;;;14.50;99.40;;;;;;5048701;28;20041;-71
2022/12/22 04:55:08;;;;;;;10.48;8.25;;;14.30;99.40;;;;;;5073784;28;20041;-69
2022/12/22 04:57:34;;;;;;;11.05;7.75;;;14.70;99.60;;;;;;5072635;28;20041;-70
2022/12/22 04:59:59;;;;;;;10.52;7.75;;;14.60;99.60;;;;;;5073660;28;20055;-70
2022/12/22 05:02:25;;;;;;;10.27;7.90;;;14.70;99.50;;;;;;5045737;28;20045;-70
2022/12/22 05:04:51;;;;;;;11.98;7.60;;;14.60;99.50;;;;;;5071494;28;20045;-70
2022/12/22 05:07:19;;;;;;;12.85;8.13;;;14.60;99.50;;;;;;5052569;28;20053;-70
2022/12/22 05:09:45;;;;;;;10.10;7.72;;;14.30;99.60;;;;;;5058664;28;20044;-70
2022/12/22 05:14:55;;;;;;;11.80;8.35;;;14.80;99.50;;;;;;5033511;28;20049;-70
2022/12/22 05:17:21;;;;;;;12.25;8.98;;;14.70;99.40;;;;;;5036226;28;20049;-71
2022/12/22 05:19:47;;;;;;;11.18;7.95;;;14.60;99.50;;;;;;5058320;28;20037;-69
2022/12/22 05:22:12;;;;;;;10.60;7.80;;;14.50;98.20;;;;;;5069194;28;20070;-69
2022/12/22 05:24:38;;;;;;;12.52;8.32;;;14.70;99.40;;;;;;5072118;28;20055;-70
2022/12/22 05:27:04;;;;;;;11.27;7.43;;;14.70;99.60;;;;;;5071741;28;20045;-70
2022/12/22 05:29:30;;;;;;;12.20;7.97;;;14.70;99.40;;;;;;5063412;28;20067;-70
2022/12/22 05:31:55;;;;;;;11.63;8.25;;;14.60;99.40;;;;;;5072521;28;20040;-70
2022/12/22 05:34:22;;;;;;;11.88;8.32;;;;;;;;;;5071908;28;20040;-71
2022/12/22 05:36:48;;;;;;;10.73;7.40;;;;;;;;;;5044736;28;20053;-71
2022/12/22 05:39:14;;;;;;;9.98;7.30;;;14.60;99.60;;;;;;5061056;28;20440;-70
2022/12/22 05:41:39;;;;;;;11.20;7.93;;;14.70;98.30;;;;;;5060448;28;20047;-71
2022/12/22 05:44:05;;;;;;;10.40;7.65;;;14.30;99.40;;;;;;5041929;28;20506;-70
2022/12/22 05:46:31;;;;;;;11.73;7.78;;;14.60;98.30;;;;;;5053936;28;20041;-70
2022/12/22 05:48:57;;;;;;;10.20;7.65;;;14.70;99.50;;;;;;5053248;28;20049;-69
2022/12/22 05:51:23;;;;;;;11.68;7.93;;;14.60;99.40;;;;;;5052607;28;20146;-71
2022/12/22 05:53:48;;;;;;;11.35;7.72;;;14.60;99.40;;;;;;5052809;28;20064;-71
2022/12/22 05:56:14;;;;;;;11.07;7.75;;;14.70;99.50;;;;;;5043757;28;20488;-69
2022/12/22 05:58:40;;;;;;;10.02;7.53;;;14.60;98.30;;;;;;5033390;28;20144;-69
2022/12/22 06:01:06;;;;;;;10.57;7.47;;;14.40;99.40;;;;;;5049783;28;20383;-70
2022/12/22 06:03:31;;;;;;;11.63;7.68;;;14.60;99.60;;;;;;5057372;28;20040;-70
2022/12/22 06:05:57;;;;;;;11.57;7.70;;;14.70;99.50;;;;;;5057144;28;20567;-70
2022/12/22 06:08:23;;;;;;;9.88;7.05;;;14.50;98.20;;;;;;5056362;28;20163;-70
2022/12/22 06:10:49;;;;;;;11.15;8.07;;;14.70;99.40;;;;;;5037425;28;20033;-69
2022/12/22 06:13:15;;;;;;;11.10;7.97;;;14.60;98.30;;;;;;5037188;28;20095;-70
2022/12/22 06:15:41;;;;;;;11.90;7.93;;;14.80;99.50;;;;;;5037104;28;20063;-70
2022/12/22 06:18:07;;;;;;;11.70;7.78;;;14.80;98.30;;;;;;5045733;28;20482;-69
2022/12/22 06:20:32;;;;;;;11.82;8.32;;;14.40;99.40;;;;;;5056934;28;20102;-70
2022/12/22 06:22:58;;;;;;;12.00;8.15;;;14.60;99.50;;;;;;5057176;28;20975;-69
2022/12/22 06:25:24;;;;;;;11.30;7.35;;;14.90;99.50;;;;;;5054157;28;20033;-71
2022/12/22 06:27:50;;;;;;;12.88;8.40;;;14.70;99.50;;;;;;5036944;28;20046;-70
2022/12/22 06:30:15;;;;;;;13.07;7.72;;;14.50;98.30;;;;;;5036918;28;20502;-70
2022/12/22 06:32:41;;;;;;;12.88;8.63;;;14.80;99.50;;;;;;5036089;28;20037;-69
2022/12/22 06:35:08;;;;;;;13.45;8.75;;;14.60;98.30;;;;;;5044885;28;20106;-69
2022/12/22 06:37:34;;;;;;;12.88;8.85;;;14.60;98.30;;;;;;5055130;28;20037;-70
2022/12/22 06:40:00;;;;;;;14.15;9.43;;;14.90;99.50;;;;;;5053044;28;20045;-69
2022/12/22 06:45:10;;;;;;;14.65;9.10;;;14.40;99.50;;;;;;5036258;28;20373;-70
2022/12/22 06:47:36;;;;;;;15.25;9.65;;;14.60;98.30;;;;;;5035615;28;20045;-70
2022/12/22 06:50:02;;;;;;;14.90;8.73;;;14.50;99.40;;;;;;5036709;28;20056;-70
2022/12/22 06:52:28;;;;;;;14.20;9.40;;;14.80;98.30;;;;;;5046128;28;20036;-70
2022/12/22 06:54:54;;;;;;;13.68;9.23;;;14.70;99.50;;;;;;5054286;28;20041;-70
2022/12/22 06:57:19;;;;;;;13.98;9.45;;;14.40;99.30;;;;;;5054663;28;20402;-69
2022/12/22 06:59:45;;;;;;;14.45;8.80;;;14.60;99.40;;;;;;5037819;28;20045;-71
2022/12/22 07:02:11;;;;;;;14.35;9.23;;;14.50;99.40;;;;;;5055836;28;20609;-70
2022/12/22 07:04:37;;;;;;;15.43;10.00;;;14.70;98.30;;;;;;5056071;28;20084;-69
2022/12/22 07:07:03;;;;;;;15.43;9.43;;;14.80;99.50;;;;;;5055638;28;20515;-70
2022/12/22 07:09:28;;;;;;;14.18;9.32;;;14.80;99.50;;;;;;5050993;28;20046;-70
2022/12/22 07:11:54;;;;;;;12.93;8.73;;;14.50;99.50;;;;;;5035552;28;20052;-69
2022/12/22 07:14:20;;;;;;;14.05;8.73;;;14.50;99.40;;;;;;5035684;28;20049;-71
2022/12/22 07:16:46;;;;;;;12.18;8.60;;;;;;;;;;5036868;28;20046;-71
2022/12/22 07:19:12;;;;;;;13.80;8.68;;;14.80;98.40;;;;;;5035962;28;20041;-69
2022/12/22 07:21:39;;;;;;;12.30;7.70;;;;;;;;;;5018194;28;20458;-69
2022/12/22 07:24:05;;;;;;;12.98;8.52;;;14.70;99.40;;;;;;5036532;28;20037;-69
2022/12/22 07:26:31;;;;;;;11.75;7.35;;;15.00;99.50;;;;;;5053538;28;20033;-70
2022/12/22 07:28:56;;;;;;;11.90;7.82;;;14.90;99.60;;;;;;5055974;28;20064;-69
2022/12/22 07:31:22;;;;;;;13.90;8.70;;;14.40;99.30;;;;;;5055397;28;20386;-69
2022/12/22 07:33:48;;;;;;;13.35;8.07;;;14.90;99.40;;;;;;5051799;28;20049;-71
2022/12/22 07:36:18;;;;;;;13.50;8.05;;;14.60;98.20;;;;;;5038401;28;20045;-70
2022/12/22 07:38:46;;;;;;;12.82;8.27;;;14.80;99.20;;;;;;5046049;28;20041;-71
2022/12/22 07:43:57;;;;;;;12.02;7.30;;;14.80;99.20;;;;;;5051153;28;20040;-71
2022/12/22 07:46:24;;;;;;;11.82;7.03;;;14.90;98.10;;;;;;5055491;28;20120;-69
2022/12/22 07:51:35;;;;;;;10.98;6.97;;;;;;;;;;5058348;28;20048;-72
2022/12/22 07:54:03;;;;;;;11.90;7.50;;;14.80;99.20;;;;;;5048017;28;20059;-71
2022/12/22 07:56:29;;;;;;;12.25;6.80;;;;;;;;;;5053670;28;20057;-69
2022/12/22 07:58:55;;;;;;;10.90;7.30;;;14.90;99.30;;;;;;5052938;28;20037;-70
2022/12/22 08:01:20;;;;;;;11.13;7.05;;;14.90;99.20;;;;;;5052963;28;20106;-69
2022/12/22 08:03:46;;;;;;;10.82;7.00;;;14.90;99.20;;;;;;5059203;28;20036;-69
2022/12/22 08:06:12;;;;;;;11.55;7.03;;;;;;;;;;5067011;28;20052;-71
2022/12/22 08:08:38;;;;;;;11.25;6.35;;;14.70;98.00;;;;;;5045103;28;20046;-70
2022/12/22 08:11:04;;;;;;;13.50;6.95;;;14.60;99.10;;;;;;5039600;28;20040;-71
2022/12/22 08:13:30;;;;;;;10.68;6.55;;;15.00;99.20;;;;;;5058108;28;20194;-70
2022/12/22 08:16:04;;;;;;;11.20;6.90;;;14.70;99.20;;;;;;5064659;28;20048;-73
2022/12/22 08:18:30;;;;;;;11.35;7.07;;;14.90;99.20;;;;;;5054300;28;20040;-70
2022/12/22 08:20:56;;;;;;;12.00;7.50;;;;;;;;;;5048388;28;20046;-64
2022/12/22 08:23:22;;;;;;;11.32;7.15;;;15.10;99.30;;;;;;5072335;28;20040;-70
2022/12/22 08:25:49;;;;;;;12.15;6.45;;;14.90;99.30;;;;;;5050281;28;20164;-71
2022/12/22 08:28:16;;;;;;;13.77;7.30;;;14.80;99.20;;;;;;5036351;28;20242;-61
2022/12/22 08:30:43;;;;;;;12.18;7.05;;;14.60;99.10;;;;;;5064950;28;20048;-69
2022/12/22 08:33:08;;;;;;;12.85;7.72;;;14.70;98.10;;;;;;5070471;28;20075;-70
2022/12/22 08:35:34;;;;;;;12.18;7.45;;;14.60;99.20;;;;;;5073137;28;20087;-70
2022/12/22 08:38:00;;;;;;;15.13;7.20;;;14.80;99.40;;;;;;5062694;28;20041;-70
2022/12/22 08:40:27;;;;;;;12.60;7.57;;;14.90;99.30;;;;;;5051848;28;20076;-69
2022/12/22 08:42:57;;;;;;;14.10;7.60;;;14.70;99.10;;;;;;5053303;28;20069;-70
2022/12/22 08:45:24;;;;;;;12.95;7.45;;;;;;;;;;5061140;28;20036;-70
2022/12/22 08:47:49;;;;;;;15.10;8.25;;;14.80;99.20;;;;;;5073285;28;20047;-70
2022/12/22 08:50:16;;;;;;;13.23;7.68;;;;;;;;;;5074099;28;20413;-69
2022/12/22 08:52:42;;;;;;;13.05;7.43;;;14.70;99.20;;;;;;5071667;28;20097;-69
2022/12/22 08:55:08;;;;;;;16.08;8.38;;;14.80;99.20;;;;;;5073334;28;20390;-67
2022/12/22 08:57:34;;;;;;;14.32;7.75;;;14.90;98.00;;;;;;5072883;28;20068;-69
2022/12/22 08:59:59;;;;;;;16.17;8.63;;;14.80;99.20;;;;;;5046973;28;20088;-67
2022/12/22 09:02:25;;;;;;;16.30;9.40;;;;;;;;;;5033710;28;20045;-67
2022/12/22 09:04:51;;;;;;;16.88;9.30;;;14.80;99.10;;;;;;5067309;28;20199;-69
2022/12/22 09:07:17;;;;;;;16.55;9.80;;;14.90;99.10;;;;;;5053775;28;20128;-70
2022/12/22 09:09:44;;;;;;;15.95;9.30;;;14.70;99.00;;;;;;5053879;28;20391;-70
2022/12/22 09:12:10;;;;;;;17.35;9.45;;;14.70;98.00;;;;;;5053776;28;20159;-70
2022/12/22 09:14:35;;;;;;;16.98;9.27;;;14.80;99.20;;;;;;5052764;28;20542;-69
2022/12/22 09:17:01;;;;;;;15.80;9.30;;;14.80;97.80;;;;;;5040274;28;20045;-70
2022/12/22 09:19:27;;;;;;;16.30;9.70;;;14.90;99.00;;;;;;5033901;28;20040;-71
2022/12/22 09:21:54;;;;;;;17.77;9.43;;;15.00;99.10;;;;;;5051085;28;20533;-71
2022/12/22 09:24:19;;;;;;;15.98;9.07;;;14.70;98.90;;;;;;5061000;28;20040;-68
2022/12/22 09:26:45;;;;;;;17.48;8.75;;;14.80;99.00;;;;;;5068097;28;20051;-70
2022/12/22 09:29:14;;;;;;;16.00;8.93;;;14.80;97.80;;;;;;5053616;28;20037;-70
2022/12/22 09:31:40;;;;;;;19.75;9.52;;;14.80;99.00;;;;;;5036963;28;20054;-70
2022/12/22 09:34:06;;;;;;;15.43;8.82;;;14.80;99.10;;;;;;5050521;28;20056;-71
2022/12/22 09:36:32;;;;;;;16.52;9.13;;;14.80;99.00;;;;;;5073633;28;20397;-70
2022/12/22 09:39:03;;;;;;;17.63;9.02;;;14.80;99.20;;;;;;5073185;28;20048;-70
2022/12/22 09:41:34;;;;;;;16.15;9.05;;;14.70;99.00;;;;;;5073565;28;20044;-70
2022/12/22 09:44:25;;;;;;;15.52;8.48;;;14.80;97.10;;;;;;5070063;28;20461;-71
2022/12/22 09:46:55;;;;;;;16.02;8.82;;;14.70;98.90;;;;;;5038917;28;20044;-69
2022/12/22 09:49:21;;;;;;;16.08;9.00;;;14.90;97.90;;;;;;5043773;28;20045;-69
2022/12/22 09:51:50;;;;;;;17.10;9.07;;;14.60;97.60;;;;;;5033955;28;20383;-70
2022/12/22 09:54:16;;;;;;;14.65;9.30;;;;;;;;;;5032205;28;20052;-68
2022/12/22 09:56:42;;;;;;;16.08;8.70;;;15.10;99.10;;;;;;5054056;28;20099;-71
2022/12/22 09:59:12;;;;;;;15.98;8.93;;;14.80;97.50;;;;;;5041630;28;20041;-71
2022/12/22 10:01:50;;;;;;;15.02;8.25;;;14.70;98.90;;;;;;5035381;28;20445;-70
2022/12/22 10:04:57;;;;;;;14.98;7.97;;;15.00;97.90;;;;;;5053021;28;20461;-70
2022/12/22 10:07:33;;;;;;;14.95;8.27;;;14.60;99.00;;;;;;4998151;28;20053;-70
2022/12/22 10:10:16;;;;;;;12.88;7.30;;;15.00;97.80;;;;;;4990688;28;20116;-71
2022/12/22 10:12:42;;;;;;;16.35;7.70;;;14.80;98.90;;;;;;4992946;28;20467;-71
2022/12/22 10:15:09;;;;;;;13.38;7.75;;;;;;;;;;5005430;28;20046;-70
2022/12/22 10:17:37;;;;;;;15.52;8.20;;;;;;;;;;5010867;28;20061;-70
2022/12/22 10:20:21;;;;;;;15.25;7.53;;;;;;;;;;5008857;28;20054;-68
2022/12/22 10:23:05;;;;;;;12.75;7.43;;;15.00;98.90;;;;;;4971971;28;20057;-69
2022/12/22 10:25:43;;;;;;;12.77;7.18;;;15.00;98.90;;;;;;4989087;28;20066;-69
2022/12/22 10:28:14;;;;;;;14.63;7.10;;;14.90;97.70;;;;;;4991773;28;20400;-70
2022/12/22 10:30:40;;;;;;;12.85;7.28;;;15.10;98.80;;;;;;4991255;28;20047;-71
2022/12/22 10:33:10;;;;;;;11.52;6.47;;;14.80;97.60;;;;;;5011065;28;20128;-70
2022/12/22 10:35:39;;;;;;;13.13;6.60;;;14.90;98.80;;;;;;5010938;28;20057;-69
2022/12/22 10:38:17;;;;;;;12.55;6.80;;;15.00;97.60;;;;;;5011029;28;20050;-69
2022/12/22 10:40:43;;;;;;;13.05;6.60;;;15.00;98.80;;;;;;4991159;28;20062;-62
2022/12/22 10:43:09;;;;;;;12.52;6.82;;;15.10;98.70;;;;;;5014492;28;20053;-70
2022/12/22 10:45:35;;;;;;;12.48;7.18;;;15.00;98.70;;;;;;5048620;28;20048;-67
2022/12/22 10:48:01;;;;;;;12.38;6.43;;;14.90;98.70;;;;;;5074913;28;20052;-69
2022/12/22 10:50:27;;;;;;;14.98;6.63;;;;;;;;;;5076757;28;20123;-67
2022/12/22 10:52:57;;;;;;;11.82;6.43;;;14.90;98.50;;;;;;5072663;28;20055;-69
2022/12/22 10:55:28;;;;;;;13.13;6.72;;;15.30;97.40;;;;;;5074796;28;20098;-70
2022/12/22 10:58:26;;;;;;;12.82;6.78;;;15.20;96.60;;;;;;5057743;28;20037;-68
2022/12/22 11:01:03;;;;;;;10.35;5.20;;;;;;;;;;4978250;28;20058;-66
2022/12/22 11:03:30;;;;;;;11.18;5.70;;;15.30;98.40;;;;;;4993414;28;20090;-68
2022/12/22 11:05:56;;;;;;;10.82;5.53;;;15.30;98.40;;;;;;4994434;28;20054;-68
2022/12/22 11:08:22;;;;;;;11.65;5.78;;;15.40;98.40;;;;;;4978305;28;20042;-70
2022/12/22 11:10:59;;;;;;;12.15;6.05;;;15.50;98.30;;;;;;4978347;28;20050;-68
2022/12/22 11:13:37;;;;;;;11.40;5.43;;;15.50;98.30;;;;;;4975716;28;20061;-70
2022/12/22 11:16:08;;;;;;;11.15;6.32;;;15.60;96.90;;;;;;4991887;28;20042;-70
2022/12/22 11:19:24;;;;;;;10.75;5.20;;;15.70;97.10;;;;;;4974791;28;20101;-69
2022/12/22 11:22:20;;;;;;;9.32;5.05;;;15.70;98.40;;;;;;4937131;29;20089;-67
2022/12/22 11:25:00;;;;;;;10.80;5.10;;;15.90;98.30;;;;;;4937537;28;20060;-69
2022/12/22 11:27:40;;;;;;;10.25;4.43;;;15.70;98.20;;;;;;4939613;29;20109;-69
2022/12/22 11:30:30;;;;;;;9.52;4.55;;;16.00;97.00;;;;;;4939160;28;20452;-69
2022/12/22 11:33:08;;;;;;;12.18;5.07;;;15.90;96.90;;;;;;4941597;29;20445;-69
2022/12/22 11:36:03;;;;;;;9.07;4.47;;;15.80;98.10;;;;;;4943551;28;20050;-66
2022/12/22 11:38:48;;;;;;;10.30;4.20;;;15.90;98.10;;;;;;4975673;28;20050;-67
2022/12/22 11:41:25;;;;;;;11.60;5.13;;;16.20;98.20;;;;;;4993897;28;20104;-68
2022/12/22 11:43:59;;;;;;;9.98;4.90;;;15.90;98.10;;;;;;4990064;28;20065;-68
2022/12/22 11:46:30;;;;;;;9.93;4.28;;;15.80;98.10;;;;;;4993212;28;20424;-69
2022/12/22 11:49:26;;;;;;;8.73;4.30;;;16.00;98.10;;;;;;4986492;28;20065;-70
2022/12/22 11:52:12;;;;;;;9.90;4.50;;;16.00;97.40;;;;;;4960820;28;20058;-70
2022/12/22 11:55:09;;;;;;;7.88;3.58;;;16.00;96.20;;;;;;4966449;28;20447;-69
2022/12/22 11:57:40;;;;;;;7.68;4.20;;;15.80;97.80;;;;;;5035898;28;20045;-71
2022/12/22 12:00:16;;;;;;;8.00;3.90;;;16.10;98.00;;;;;;5070443;28;20044;-70
2022/12/22 12:02:50;;;;;;;7.43;3.70;;;16.00;97.80;;;;;;5067672;28;20154;-70
2022/12/22 12:05:37;;;;;;;7.60;3.83;;;16.10;95.90;;;;;;5052472;28;20050;-70
2022/12/22 12:08:29;;;;;;;8.43;4.25;;;16.10;97.90;;;;;;5034454;28;20052;-70
2022/12/22 12:11:17;;;;;;;7.35;3.72;;;16.20;96.00;;;;;;5034128;28;20045;-69
2022/12/22 12:13:52;;;;;;;9.15;3.70;;;16.00;95.80;;;;;;5065336;28;20045;-70
2022/12/22 12:16:56;;;;;;;9.38;3.65;;;16.20;97.70;;;;;;5056494;28;20052;-70
2022/12/22 12:20:09;;;;;;;8.45;3.80;;;16.20;95.70;;;;;;5031864;28;20045;-69
2022/12/22 12:23:06;;;;;;;7.88;3.83;;;16.00;97.60;;;;;;4993148;28;20042;-69
2022/12/22 12:26:05;;;;;;;7.72;3.40;;;16.00;97.60;;;;;;4992391;28;20055;-71
2022/12/22 12:28:35;;;;;;;7.47;3.38;;;16.40;97.70;;;;;;4971948;28;20053;-69
2022/12/22 12:31:01;;;;;;;9.95;3.40;;;16.00;97.70;;;;;;4993487;28;20047;-70
2022/12/22 12:33:50;;;;;;;6.30;3.10;;;16.10;96.40;;;;;;4991416;28;20401;-70
2022/12/22 12:36:51;;;;;;;8.32;3.55;;;16.00;95.60;;;;;;4982784;28;20058;-70
2022/12/22 12:39:35;;;;;;;8.13;3.38;;;16.20;96.40;;;;;;4969128;28;20499;-70
2022/12/22 12:42:31;;;;;;;5.93;3.10;;;15.90;96.60;;;;;;4970023;28;20120;-70
2022/12/22 12:44:59;;;;;;;6.15;3.03;;;16.00;97.50;;;;;;5010234;28;20143;-68
2022/12/22 12:47:27;;;;;;;9.63;3.42;;;15.70;97.40;;;;;;4999543;28;20125;-69
2022/12/22 12:50:25;;;;;;;10.77;3.17;;;16.00;97.40;;;;;;4968299;28;20054;-69
2022/12/22 12:52:50;;;;;;;6.75;3.25;;;15.90;97.40;;;;;;5011895;28;20054;-70
2022/12/22 12:55:29;;;;;;;9.40;3.33;;;16.00;97.50;;;;;;5011878;28;20072;-70
2022/12/22 12:57:55;;;;;;;9.57;3.25;;;15.70;97.40;;;;;;5013143;28;20055;-69
2022/12/22 13:00:36;;;;;;;12.63;3.22;;;15.90;96.10;;;;;;5072796;28;20371;-69
2022/12/22 13:03:11;;;;;;;8.63;2.90;;;15.70;96.10;;;;;;5052509;28;20052;-69
2022/12/22 13:05:59;;;;;;;7.78;3.28;;;16.00;95.70;;;;;;5053481;28;20061;-69
2022/12/22 13:08:25;;;;;;;9.73;3.78;;;16.00;97.20;;;;;;5032349;28;20424;-68
2022/12/22 13:10:54;;;;;;;8.05;3.20;;;15.70;95.50;;;;;;5032289;28;20041;-67
2022/12/22 13:13:26;;;;;;;6.63;3.28;;;15.70;95.60;;;;;;5032569;28;20084;-68
2022/12/22 13:16:01;;;;;;;8.40;3.58;;;15.40;95.60;;;;;;5032611;28;20499;-67
2022/12/22 13:18:33;;;;;;;10.85;3.20;;;15.70;97.50;;;;;;5033834;28;20072;-67
2022/12/22 13:21:05;;;;;;;8.70;3.67;;;;;;;;;;5033847;28;20127;-67
2022/12/22 13:23:38;;;;;;;8.18;3.80;;;15.70;97.50;;;;;;5038051;28;20051;-67
2022/12/22 13:26:17;;;;;;;8.65;2.90;;;15.60;95.60;;;;;;5050558;28;20433;-67
2022/12/22 13:28:47;;;;;;;7.97;3.50;;;15.40;97.60;;;;;;5034259;28;20180;-64
2022/12/22 13:31:20;;;;;;;8.50;3.00;;;15.70;96.00;;;;;;5038647;28;20106;-65
2022/12/22 13:33:47;;;;;;;7.72;3.08;;;15.50;97.50;;;;;;5019172;28;20053;-67
2022/12/22 13:36:18;;;;;;;11.10;3.55;;;15.70;97.70;;;;;;5035682;28;20047;-67
2022/12/22 13:38:44;;;;;;;8.07;2.67;;;15.50;97.50;;;;;;5052066;28;20041;-67
2022/12/22 13:41:19;;;;;;;7.90;3.33;;;15.70;96.20;;;;;;5051940;28;20049;-66
2022/12/22 13:43:48;;;;;;;6.80;2.80;;;15.50;97.50;;;;;;5035895;28;20393;-68
2022/12/22 13:46:14;;;;;;;14.40;4.05;;;15.90;97.20;;;;;;5051910;28;20455;-69
2022/12/22 13:48:41;;;;;;;9.90;3.47;;;;;;;;;;5042151;28;20120;-60
2022/12/22 13:51:08;;;;;;;10.98;3.53;;;15.10;96.90;;;;;;5062708;28;20102;-68
2022/12/22 13:53:43;;;;;;;7.68;3.42;;;15.00;95.70;;;;;;5032397;28;20051;-67
2022/12/22 13:56:23;;;;;;;9.93;3.50;;;14.90;95.40;;;;;;5031940;28;20049;-67
2022/12/22 13:58:58;;;;;;;10.10;3.00;;;15.00;97.30;;;;;;5034761;28;20042;-68
2022/12/22 14:01:24;;;;;;;8.10;3.50;;;15.20;97.40;;;;;;5035741;28;20051;-68
2022/12/22 14:04:02;;;;;;;15.52;3.65;;;15.20;97.30;;;;;;5058802;28;20550;-67
2022/12/22 14:06:27;;;;;;;10.40;3.33;;;15.20;97.40;;;;;;5037807;28;20052;-66
2022/12/22 14:08:54;;;;;;;10.10;3.42;;;;;;;;;;5032967;28;20049;-68
2022/12/22 14:11:20;;;;;;;9.40;3.55;;;;;;;;;;5034420;28;20049;-68
2022/12/22 14:13:46;;;;;;;8.82;2.92;;;15.30;97.30;;;;;;5060882;28;20127;-67
2022/12/22 14:16:12;;;;;;;11.27;3.38;;;15.30;97.40;;;;;;5071612;28;20080;-66
2022/12/22 14:18:38;;;;;;;10.18;2.90;;;15.20;97.40;;;;;;5071838;28;20040;-66
2022/12/22 14:21:04;;;;;;;6.80;2.58;;;15.20;97.40;;;;;;5073871;28;20037;-66
2022/12/22 14:23:32;;;;;;;7.47;2.83;;;14.90;97.30;;;;;;5053645;28;20040;-66
2022/12/22 14:25:58;;;;;;;10.15;2.63;;;15.20;96.20;;;;;;5076953;28;20068;-67
2022/12/22 14:28:26;;;;;;;8.80;2.70;;;15.10;97.40;;;;;;5058734;28;20044;-67
2022/12/22 14:30:53;;;;;;;8.38;2.78;;;15.10;96.20;;;;;;5076419;28;20498;-67
2022/12/22 14:33:26;;;;;;;6.90;2.50;;;15.00;95.40;;;;;;5071801;28;20053;-66
2022/12/22 14:36:11;;;;;;;8.30;2.65;;;;;;;;;;5076768;28;20150;-67
2022/12/22 14:38:43;;;;;;;7.28;2.40;;;15.20;97.30;;;;;;5069611;28;20132;-66
2022/12/22 14:44:23;;;;;;;6.43;2.47;;;;;;;;;;5056864;28;20368;-66
2022/12/22 14:47:16;;;;;;;9.98;2.80;;;15.30;96.20;;;;;;5055552;28;20109;-67
2022/12/22 14:50:03;;;;;;;10.70;2.75;;;14.90;97.30;;;;;;5066090;28;20055;-67
2022/12/22 14:52:49;;;;;;;6.72;2.28;;;15.20;96.20;;;;;;5073242;28;20054;-66
2022/12/22 14:55:34;;;;;;;8.57;2.40;;;15.20;95.50;;;;;;5054184;28;20071;-67
2022/12/22 14:58:07;;;;;;;8.23;2.90;;;15.30;97.30;;;;;;5050631;28;20079;-69
2022/12/22 15:00:38;;;;;;;11.45;2.53;;;;;;;;;;5065189;28;20043;-66
2022/12/22 15:03:22;;;;;;;8.32;2.40;;;15.20;97.30;;;;;;5063976;28;20044;-68
2022/12/22 15:05:49;;;;;;;10.10;2.25;;;;;;;;;;5066713;28;20502;-66
2022/12/22 15:08:40;;;;;;;8.82;2.42;;;15.30;95.50;;;;;;5071362;28;20049;-67
2022/12/22 15:11:10;;;;;;;8.45;2.38;;;15.20;97.30;;;;;;5076095;28;20421;-68
2022/12/22 15:13:36;;;;;;;7.85;2.75;;;15.30;97.20;;;;;;5052894;28;20160;-69
2022/12/22 15:16:02;;;;;;;8.93;2.80;;;;;;;;;;5056847;28;20147;-67
2022/12/22 15:18:28;;;;;;;8.15;2.72;;;15.20;97.20;;;;;;5075097;28;20048;-68
2022/12/22 15:20:54;;;;;;;7.97;2.67;;;14.80;97.10;;;;;;5075951;28;20110;-68
2022/12/22 15:23:20;;;;;;;9.20;2.67;;;15.20;97.20;;;;;;5071663;28;20485;-69
2022/12/22 15:25:46;;;;;;;11.68;2.80;;;15.20;97.20;;;;;;5074695;28;20044;-68
2022/12/22 15:28:12;;;;;;;7.45;2.47;;;15.10;97.20;;;;;;5075565;28;20481;-68
2022/12/22 15:30:38;;;;;;;7.32;2.40;;;15.20;97.40;;;;;;5054377;28;20445;-68
2022/12/22 15:33:04;;;;;;;10.05;2.58;;;;;;;;;;5052053;28;20033;-69
2022/12/22 15:35:31;;;;;;;7.75;2.90;;;;;;;;;;5064814;28;20044;-69
2022/12/22 15:37:57;;;;;;;8.45;2.88;;;15.10;97.30;;;;;;5061659;28;20055;-67
2022/12/22 15:40:23;;;;;;;7.65;2.50;;;15.30;97.40;;;;;;5055689;28;20036;-67
2022/12/22 15:42:50;;;;;;;9.05;2.60;;;;;;;;;;5060222;28;20048;-70
2022/12/22 15:45:16;;;;;;;7.90;2.78;;;;;;;;;;5051266;28;20040;-63
2022/12/22 15:47:44;;;;;;;6.95;2.92;;;15.30;97.50;;;;;;5051489;28;20047;-69
2022/12/22 15:50:17;;;;;;;10.27;2.80;;;15.10;97.50;;;;;;5037537;28;20041;-69
2022/12/22 15:52:49;;;;;;;7.13;2.30;;;15.20;97.50;;;;;;5055754;28;20124;-69
2022/12/22 15:55:15;;;;;;;9.00;3.20;;;15.10;97.50;;;;;;5060259;28;20090;-70
2022/12/22 15:57:41;;;;;;;10.18;2.80;;;15.30;97.60;;;;;;5058151;28;20491;-70
2022/12/22 16:00:10;;;;;;;9.90;2.33;;;15.20;97.90;;;;;;5055663;28;20056;-68
2022/12/22 16:02:37;;;;;;;8.05;2.45;;;;;;;;;;5075118;28;20389;-69
2022/12/22 16:05:03;;;;;;;6.60;2.33;;;15.10;97.90;;;;;;5066736;28;20048;-69
2022/12/22 16:07:29;;;;;;;7.20;2.25;;;15.10;98.10;;;;;;5074639;28;20052;-68
2022/12/22 16:09:55;;;;;;;9.77;2.83;;;15.00;98.10;;;;;;5056772;28;20486;-67
2022/12/22 16:12:21;;;;;;;9.50;2.60;;;15.20;98.10;;;;;;5074931;28;20119;-68
2022/12/22 16:14:48;;;;;;;8.90;2.65;;;;;;;;;;5060084;28;20376;-69
2022/12/22 16:17:24;;;;;;;5.35;2.60;;;15.10;98.50;;;;;;5074126;28;20160;-68
2022/12/22 16:19:50;;;;;;;8.95;2.65;;;14.90;98.20;;;;;;5074772;28;20075;-68
2022/12/22 16:22:18;;;;;;;7.78;2.63;;;15.10;98.60;;;;;;5042624;28;20507;-69
2022/12/22 16:24:45;;;;;;;9.07;2.80;;;15.10;96.90;;;;;;5034813;28;20513;-68
2022/12/22 16:27:11;;;;;;;6.57;2.80;;;15.20;98.50;;;;;;5067808;28;20044;-68
2022/12/22 16:29:38;;;;;;;6.10;2.95;;;15.10;98.70;;;;;;5073920;28;20048;-69
2022/12/22 16:32:25;;;;;;;8.02;2.70;;;15.10;96.50;;;;;;5073337;28;20040;-68
2022/12/22 16:34:51;;;;;;;5.60;2.90;;;;;;;;;;5071146;28;20375;-70
2022/12/22 16:37:21;;;;;;;7.85;3.13;;;;;;;;;;5071677;28;20060;-68
2022/12/22 16:39:46;;;;;;;7.85;3.13;;;15.20;99.00;;;;;;5034570;28;20129;-68
2022/12/22 16:42:14;;;;;;;7.07;2.83;;;15.30;98.80;;;;;;5034472;28;20095;-69
2022/12/22 16:44:40;;;;;;;7.32;2.72;;;15.40;99.00;;;;;;5033651;28;20450;-69
2022/12/22 16:47:18;;;;;;;8.05;3.17;;;15.20;98.90;;;;;;5056848;28;20072;-68
2022/12/22 16:49:46;;;;;;;7.40;2.85;;;15.20;99.10;;;;;;5037945;28;20045;-70
2022/12/22 16:52:19;;;;;;;10.10;2.75;;;15.30;98.00;;;;;;5053005;28;20041;-69
2022/12/22 16:54:46;;;;;;;8.35;2.90;;;15.20;99.10;;;;;;5045270;28;20121;-69
2022/12/22 16:57:12;;;;;;;6.55;2.60;;;15.30;98.00;;;;;;5055923;28;20513;-69
2022/12/22 16:59:37;;;;;;;6.63;3.25;;;15.10;99.10;;;;;;5072653;28;20093;-68